HRHO2: North Canadian River

                                SHEF ID:       HRHO2     North Canadian River near Harrah
STATION TYPE:
Regulating: Stage = 15.00, Flow = 8563

STAGE RIV-FLOW WTR-TEMP DIS-OXY PH CONDUCT BAT-LOAD
ft cfs F mg/l su umho/cm volt
Ccp-Rev Ccp-Rev Ccp-Rev Ccp-Rev Ccp-Rev Ccp-Rev Ccp-Rev
(America/Chicago)
07/12 00:00 3.21 111 86.77 0.12 7.04 869 11.91
07/12 01:00 3.24 116 83.12 0.15 6.97 823 11.91
07/12 02:00 3.28 123 80.65 0.40 7.00 766 11.93
07/12 03:00 3.34 135 79.45 0.35 7.11 695 11.94
07/12 04:00 3.38 142 78.73 0.37 7.18 686 11.92
07/12 05:00 3.46 158 78.85 0.25 7.52 723 11.91
07/12 06:00 3.52 170 77.81 0.20 7.35 602 11.90
07/12 07:00 3.54 174 76.50 0.15 7.30 474 11.89
07/12 08:00 3.51 168 76.19 0.16 7.30 485 11.88
07/12 09:00 3.48 162 76.60 0.22 7.35 516 11.96
07/12 10:00 3.44 154 77.86 0.17 7.29 550 12.31
07/12 11:00 3.43 152 79.61 0.17 7.31 598 12.80
07/12 12:00 3.41 148 81.64 0.26 7.22 629 12.99
07/12 13:00 3.39 144 84.76 0.41 7.31 662 13.03
07/12 14:00 3.37 140 87.24 0.67 7.18 696 12.93
07/12 15:00 3.36 138 89.24 0.33 7.34 713 12.90
07/12 16:00 3.35 136 90.55 1.05 7.42 719 12.80
07/12 17:00 3.35 136 90.79 0.59 7.72 714 12.62
07/12 18:00 3.54 174 90.68 1.36 7.10 719 12.58
07/12 19:00 3.96 274 89.74 0.53 7.71 830 12.48
07/12 20:00 4.12 315 87.19 0.69 7.35 778 12.34
07/12 21:00 4.22 342 84.33 0.31 7.64 604 12.14
07/12 22:00 4.26 353 83.05 0.37 6.98 482 12.00
07/12 23:00 4.27 355 82.89 0.34 7.37 434 11.93
Data processed at Mon 13Jul2026 04:25 GMT

NOTICE: If you are parsing this page

Please convert to using our Data API. Starting early 2026 we will be migrating to: https://water.usace.army.mil with modern pages rendered in JavaScript. When this migration completes you will no longer be able to scrape this page! CWMSDataAPI (CDA)

Timeseries IDs (TSIDs)

TSIDs used from left to right in the data table
HARR.Stage.Inst.1Hour.0.Ccp-Rev
HARR.Flow.Inst.1Hour.0.Ccp-Rev
HARR.Temp-Water.Inst.1Hour.0.Ccp-Rev
HARR.Conc-DO.Inst.1Hour.0.Ccp-Rev
HARR.pH.Inst.1Hour.0.Ccp-Rev
HARR.Cond-Water.Inst.1Hour.0.Ccp-Rev
HARR.Volt-Battery Load.Inst.1Hour.0.Ccp-Rev

                            

All information presented herein is the property of the government of the United States of America and may be revised or deleted at any time without prior notice. Dissemination of this information without the expressed written consent of the Public Affairs Office, Tulsa District U.S. Army Corps of Engineers is strictly prohibited. These data are gathered electronically and, as presented, have NOT undergone any form of quality control. These data are NOT guaranteed to be valid or correct.